Time;durP1;ratioP1;P1;durP2;ratioP2;P2;SDS_P1;SDS_P2;PMS_P1;PMS_P2;Temp;Humidity;BMP_temperature;BMP_pressure;BME280_temperature;BME280_humidity;BME280_pressure;Samples;Min_cycle;Max_cycle;Signal;HPM_P1;HPM_P2
2022/03/14 00:01:45;;;;;;;4.13;2.53;;;14.80;55.40;;;;;;5035227;28;20469;-70
2022/03/14 00:04:13;;;;;;;3.80;2.60;;;14.70;55.60;;;;;;5035034;28;20450;-70
2022/03/14 00:06:39;;;;;;;2.97;2.63;;;14.70;55.70;;;;;;5034933;28;20527;-70
2022/03/14 00:09:07;;;;;;;5.33;2.63;;;14.70;55.70;;;;;;5035019;28;20442;-70
2022/03/14 00:11:37;;;;;;;4.27;2.30;;;14.70;55.90;;;;;;5034942;28;20446;-70
2022/03/14 00:14:06;;;;;;;4.47;2.60;;;14.70;56.40;;;;;;5034930;28;20550;-70
2022/03/14 00:16:35;;;;;;;3.13;2.40;;;14.70;56.30;;;;;;5034476;28;20983;-70
2022/03/14 00:19:06;;;;;;;3.93;2.60;;;14.60;56.20;;;;;;5034737;28;20482;-70
2022/03/14 00:21:39;;;;;;;4.20;2.77;;;14.70;56.30;;;;;;5034795;28;20437;-71
2022/03/14 00:24:09;;;;;;;4.27;2.60;;;14.70;56.20;;;;;;5034875;28;20439;-71
2022/03/14 00:26:37;;;;;;;6.57;2.80;;;14.70;56.40;;;;;;5034650;28;20500;-70
2022/03/14 00:29:04;;;;;;;4.00;2.50;;;14.70;56.10;;;;;;5034322;28;20954;-71
2022/03/14 00:31:31;;;;;;;5.10;2.80;;;14.70;56.30;;;;;;5034544;28;20478;-71
2022/03/14 00:33:58;;;;;;;2.93;2.43;;;14.70;56.50;;;;;;5034587;28;20431;-70
2022/03/14 00:36:25;;;;;;;3.23;2.93;;;14.70;56.50;;;;;;5034668;28;20470;-70
2022/03/14 00:38:53;;;;;;;4.03;2.23;;;14.70;56.20;;;;;;5034595;28;20552;-70
2022/03/14 00:41:22;;;;;;;3.17;2.87;;;14.60;56.30;;;;;;5034645;28;20461;-70
2022/03/14 00:43:49;;;;;;;3.10;2.80;;;14.60;56.30;;;;;;5034904;28;20454;-70
2022/03/14 00:46:16;;;;;;;2.90;2.70;;;14.60;56.40;;;;;;5035547;28;20502;-70
2022/03/14 00:48:43;;;;;;;4.23;2.40;;;14.50;56.60;;;;;;5036110;28;20451;-70
2022/03/14 00:51:10;;;;;;;2.87;2.67;;;14.50;56.70;;;;;;5034485;28;20454;-70
2022/03/14 00:53:37;;;;;;;5.10;2.50;;;14.50;56.80;;;;;;5033886;28;20962;-70
2022/03/14 00:56:06;;;;;;;6.60;2.87;;;14.50;57.20;;;;;;5033063;28;20557;-70
2022/03/14 00:58:34;;;;;;;5.60;3.27;;;14.40;57.00;;;;;;5034139;28;20486;-71
2022/03/14 01:01:01;;;;;;;3.80;2.60;;;14.40;57.00;;;;;;5034563;28;20460;-71
2022/03/14 01:03:28;;;;;;;5.73;2.73;;;14.40;56.90;;;;;;5034076;28;20473;-71
2022/03/14 01:05:55;;;;;;;3.40;3.10;;;14.30;56.90;;;;;;5033891;28;20554;-71
2022/03/14 01:08:22;;;;;;;4.00;2.53;;;14.20;57.10;;;;;;5034024;28;20453;-71
2022/03/14 01:10:48;;;;;;;6.60;2.90;;;14.20;57.40;;;;;;5033895;28;20446;-70
2022/03/14 01:13:15;;;;;;;5.53;3.03;;;14.20;57.50;;;;;;5033907;28;20454;-70
2022/03/14 01:15:43;;;;;;;3.10;2.83;;;14.30;57.60;;;;;;5033470;28;20997;-70
2022/03/14 01:18:10;;;;;;;3.67;2.10;;;14.30;58.20;;;;;;5033782;28;20572;-71
2022/03/14 01:20:37;;;;;;;3.50;2.53;;;14.20;58.40;;;;;;5033672;28;20453;-70
2022/03/14 01:23:04;;;;;;;3.70;2.67;;;14.10;58.40;;;;;;5033494;28;20985;-71
2022/03/14 01:25:31;;;;;;;3.77;2.90;;;14.10;58.30;;;;;;5033324;28;20477;-70
2022/03/14 01:27:57;;;;;;;3.33;2.97;;;14.00;58.50;;;;;;5033685;28;20450;-70
2022/03/14 01:30:24;;;;;;;3.27;3.03;;;14.00;58.70;;;;;;5033689;28;20549;-70
2022/03/14 01:32:52;;;;;;;6.37;3.43;;;13.90;59.10;;;;;;5033331;28;20466;-70
2022/03/14 01:35:19;;;;;;;4.33;3.00;;;13.80;59.30;;;;;;5033608;28;20485;-70
2022/03/14 01:37:49;;;;;;;3.17;2.90;;;13.80;59.60;;;;;;5033500;28;20451;-71
2022/03/14 01:40:16;;;;;;;3.30;3.00;;;13.70;59.50;;;;;;5033568;28;20454;-71
2022/03/14 01:42:43;;;;;;;3.10;2.90;;;13.60;59.90;;;;;;5033472;28;20615;-70
2022/03/14 01:45:12;;;;;;;2.53;2.33;;;13.70;60.80;;;;;;5033470;28;20498;-70
2022/03/14 01:47:41;;;;;;;7.13;3.57;;;13.60;60.60;;;;;;5033188;28;20939;-70
2022/03/14 01:50:10;;;;;;;3.30;3.00;;;13.70;61.10;;;;;;5033501;28;20534;-70
2022/03/14 01:52:37;;;;;;;4.40;3.00;;;13.70;61.60;;;;;;5033073;28;20931;-70
2022/03/14 01:55:05;;;;;;;3.60;3.30;;;13.70;61.80;;;;;;5033297;28;20477;-70
2022/03/14 01:57:32;;;;;;;5.73;3.07;;;13.70;63.00;;;;;;5033366;28;20454;-70
2022/03/14 01:59:59;;;;;;;3.00;2.80;;;13.70;63.30;;;;;;5032996;28;20485;-70
2022/03/14 02:02:26;;;;;;;3.83;2.87;;;13.60;63.10;;;;;;5033454;28;20449;-70
2022/03/14 02:04:53;;;;;;;7.57;4.13;;;13.60;64.00;;;;;;5033257;28;20493;-70
2022/03/14 02:07:22;;;;;;;5.00;3.23;;;13.60;64.90;;;;;;5034032;28;20493;-70
2022/03/14 02:09:48;;;;;;;3.10;2.83;;;13.60;65.10;;;;;;5037238;28;20442;-70
2022/03/14 02:12:15;;;;;;;4.60;3.30;;;13.60;66.40;;;;;;5036912;28;20815;-70
2022/03/14 02:14:42;;;;;;;3.10;2.90;;;13.60;66.30;;;;;;5037104;28;20473;-70
2022/03/14 02:17:10;;;;;;;4.70;3.30;;;13.60;67.20;;;;;;5037350;28;20450;-71
2022/03/14 02:19:37;;;;;;;4.67;3.13;;;13.50;67.90;;;;;;5037436;28;20485;-70
2022/03/14 02:22:06;;;;;;;4.10;3.70;;;13.50;68.20;;;;;;5037173;28;20446;-70
2022/03/14 02:24:34;;;;;;;3.57;3.13;;;13.50;69.90;;;;;;5036688;28;21020;-70
2022/03/14 02:27:00;;;;;;;3.63;3.30;;;13.50;69.80;;;;;;5036728;28;20561;-70
2022/03/14 02:29:27;;;;;;;4.27;3.77;;;13.50;70.50;;;;;;5037000;28;20445;-70
2022/03/14 02:31:54;;;;;;;4.57;4.17;;;13.40;70.50;;;;;;5036678;28;20458;-70
2022/03/14 02:34:21;;;;;;;3.40;2.90;;;13.40;71.50;;;;;;5036812;28;20803;-70
2022/03/14 02:36:47;;;;;;;3.70;3.40;;;13.40;71.20;;;;;;5036310;28;20453;-70
2022/03/14 02:39:16;;;;;;;5.00;3.60;;;13.40;71.60;;;;;;5036653;28;20473;-70
2022/03/14 02:41:42;;;;;;;3.40;3.20;;;13.40;72.60;;;;;;5036648;28;20454;-70
2022/03/14 02:44:09;;;;;;;3.37;3.07;;;13.40;72.80;;;;;;5036837;28;20446;-70
2022/03/14 02:46:37;;;;;;;6.00;4.00;;;13.40;73.40;;;;;;5036249;28;21002;-70
2022/03/14 02:49:04;;;;;;;4.83;3.43;;;13.40;73.80;;;;;;5036210;28;20792;-70
2022/03/14 02:51:34;;;;;;;3.23;3.03;;;13.40;74.30;;;;;;5036428;28;20457;-70
2022/03/14 02:54:04;;;;;;;4.23;3.83;;;13.30;74.90;;;;;;5036154;28;20939;-70
2022/03/14 02:56:32;;;;;;;4.00;3.40;;;13.30;76.00;;;;;;5036009;28;20459;-70
2022/03/14 02:58:59;;;;;;;4.23;3.80;;;13.30;76.50;;;;;;5036230;28;20512;-70
2022/03/14 03:01:26;;;;;;;4.00;3.53;;;13.30;78.00;;;;;;5036326;28;20458;-70
2022/03/14 03:03:52;;;;;;;4.03;3.67;;;13.30;78.40;;;;;;5035981;28;20442;-70
2022/03/14 03:06:22;;;;;;;5.00;4.50;;;13.30;80.20;;;;;;5035789;28;20893;-70
2022/03/14 03:08:52;;;;;;;5.57;3.77;;;13.20;80.30;;;;;;5036478;28;20459;-70
2022/03/14 03:11:19;;;;;;;3.87;3.30;;;13.30;81.50;;;;;;5035789;28;20797;-70
2022/03/14 03:13:48;;;;;;;4.00;3.47;;;13.10;80.80;;;;;;5036156;28;20455;-70
2022/03/14 03:16:16;;;;;;;3.20;2.90;;;13.10;82.10;;;;;;5035953;28;20476;-70
2022/03/14 03:18:44;;;;;;;3.97;3.57;;;12.90;83.80;;;;;;5035581;28;20482;-70
2022/03/14 03:21:11;;;;;;;4.40;4.00;;;12.90;84.60;;;;;;5035784;28;20442;-70
2022/03/14 03:23:39;;;;;;;4.60;4.20;;;12.70;85.00;;;;;;5036031;28;20871;-70
2022/03/14 03:26:06;;;;;;;4.10;3.80;;;12.60;88.00;;;;;;5036002;28;20467;-70
2022/03/14 03:28:35;;;;;;;4.40;3.80;;;12.60;89.60;;;;;;5035986;28;20477;-70
2022/03/14 03:31:05;;;;;;;4.33;3.80;;;12.50;90.40;;;;;;5036208;28;20454;-70
2022/03/14 03:33:32;;;;;;;4.13;3.80;;;12.40;90.50;;;;;;5036670;28;20869;-70
2022/03/14 03:35:59;;;;;;;4.60;4.13;;;12.40;91.20;;;;;;5036789;28;20466;-70
2022/03/14 03:38:26;;;;;;;4.50;4.10;;;12.30;92.40;;;;;;5036063;28;20537;-70
2022/03/14 03:40:53;;;;;;;4.53;3.90;;;12.20;92.90;;;;;;5037004;28;20442;-71
2022/03/14 03:43:20;;;;;;;5.10;3.60;;;12.20;93.70;;;;;;5037571;28;20449;-70
2022/03/14 03:45:46;;;;;;;4.10;3.80;;;12.10;94.40;;;;;;5035654;28;20829;-70
2022/03/14 03:48:14;;;;;;;5.23;4.10;;;12.00;94.80;;;;;;5035635;28;20454;-70
2022/03/14 03:50:41;;;;;;;4.00;3.60;;;11.90;95.10;;;;;;5035317;28;20981;-70
2022/03/14 03:53:08;;;;;;;4.43;4.03;;;11.80;95.60;;;;;;5035270;28;20931;-70
2022/03/14 03:55:35;;;;;;;4.73;4.20;;;11.80;95.40;;;;;;5035426;28;20478;-70
2022/03/14 03:58:02;;;;;;;3.97;3.67;;;11.80;96.50;;;;;;5035809;28;20431;-70
2022/03/14 04:00:29;;;;;;;5.13;4.27;;;11.80;96.50;;;;;;5035259;28;21021;-70
2022/03/14 04:02:55;;;;;;;4.30;3.90;;;11.90;97.20;;;;;;5035330;28;20452;-71
2022/03/14 04:05:25;;;;;;;6.63;4.30;;;11.80;97.20;;;;;;5035243;28;20473;-71
2022/03/14 04:07:54;;;;;;;4.87;4.37;;;11.90;97.60;;;;;;5034763;28;20481;-71
2022/03/14 04:10:21;;;;;;;4.90;4.17;;;11.90;97.30;;;;;;5036559;28;20461;-70
2022/03/14 04:12:48;;;;;;;3.60;3.30;;;11.90;96.50;;;;;;5034909;28;20450;-70
2022/03/14 04:15:15;;;;;;;4.50;3.53;;;12.00;97.10;;;;;;5034848;28;20485;-70
2022/03/14 04:17:42;;;;;;;4.07;3.20;;;12.00;96.80;;;;;;5034827;28;20486;-70
2022/03/14 04:20:12;;;;;;;3.27;2.97;;;12.00;96.90;;;;;;5034797;28;20474;-70
2022/03/14 04:22:41;;;;;;;4.07;2.90;;;12.00;96.40;;;;;;5035666;28;20772;-70
2022/03/14 04:25:11;;;;;;;4.93;3.80;;;12.10;96.20;;;;;;5034710;28;20473;-70
2022/03/14 04:27:38;;;;;;;4.10;2.80;;;12.10;96.00;;;;;;5035594;28;20451;-70
2022/03/14 04:30:06;;;;;;;5.53;2.97;;;12.10;96.10;;;;;;5034622;28;20454;-70
2022/03/14 04:32:32;;;;;;;3.20;3.00;;;12.20;96.00;;;;;;5033519;28;20492;-70
2022/03/14 04:34:59;;;;;;;4.27;3.17;;;12.20;95.60;;;;;;5034207;28;20966;-70
2022/03/14 04:37:26;;;;;;;3.17;2.33;;;12.20;95.70;;;;;;5034192;28;21014;-70
2022/03/14 04:39:54;;;;;;;3.23;2.93;;;12.30;95.60;;;;;;5034048;28;20493;-70
2022/03/14 04:42:23;;;;;;;3.20;2.90;;;12.30;95.20;;;;;;5034011;28;21002;-70
2022/03/14 04:44:51;;;;;;;3.13;2.83;;;12.30;94.70;;;;;;5034362;28;20475;-70
2022/03/14 04:47:17;;;;;;;3.10;2.40;;;12.30;94.70;;;;;;5034042;28;20939;-70
2022/03/14 04:49:44;;;;;;;3.00;2.80;;;12.30;94.80;;;;;;5034029;28;20469;-70
2022/03/14 04:52:11;;;;;;;2.70;2.50;;;12.20;94.70;;;;;;5034214;28;20442;-70
2022/03/14 04:54:39;;;;;;;2.93;2.70;;;12.30;94.60;;;;;;5033866;28;20840;-70
2022/03/14 04:57:07;;;;;;;2.93;2.70;;;12.30;94.70;;;;;;5034177;28;20446;-70
2022/03/14 04:59:34;;;;;;;2.60;2.40;;;12.40;94.70;;;;;;5033804;28;20986;-70
2022/03/14 05:02:01;;;;;;;3.10;2.80;;;12.30;94.50;;;;;;5034094;28;20450;-70
2022/03/14 05:04:27;;;;;;;2.77;2.57;;;12.30;94.60;;;;;;5034069;28;20545;-70
2022/03/14 05:06:54;;;;;;;2.93;2.43;;;12.20;94.60;;;;;;5033660;28;20938;-70
2022/03/14 05:09:21;;;;;;;3.47;2.37;;;12.30;94.60;;;;;;5034025;28;20446;-70
2022/03/14 05:11:48;;;;;;;2.70;2.50;;;12.30;94.70;;;;;;5033938;28;20450;-70
2022/03/14 05:14:16;;;;;;;3.10;2.80;;;12.30;94.80;;;;;;5033617;28;20939;-69
2022/03/14 05:16:43;;;;;;;5.40;2.97;;;12.30;94.80;;;;;;5033564;28;20857;-69
2022/03/14 05:19:10;;;;;;;3.23;2.57;;;12.30;94.80;;;;;;5033923;28;20509;-70
2022/03/14 05:21:37;;;;;;;4.30;2.90;;;12.30;95.10;;;;;;5033801;28;20847;-69
2022/03/14 05:24:05;;;;;;;5.50;3.17;;;12.30;94.80;;;;;;5033903;28;20549;-69
2022/03/14 05:26:32;;;;;;;3.97;2.60;;;12.30;95.00;;;;;;5033473;28;20551;-69
2022/03/14 05:28:59;;;;;;;3.33;2.90;;;12.30;95.20;;;;;;5033769;28;20473;-70
2022/03/14 05:31:27;;;;;;;3.27;3.00;;;12.20;95.20;;;;;;5033470;28;20878;-70
2022/03/14 05:33:53;;;;;;;2.93;2.60;;;12.20;95.40;;;;;;5033761;28;20439;-69
2022/03/14 05:36:20;;;;;;;5.97;2.80;;;12.10;95.60;;;;;;5033689;28;20469;-69
2022/03/14 05:38:47;;;;;;;3.73;3.43;;;12.10;95.70;;;;;;5033543;28;20504;-69
2022/03/14 05:41:14;;;;;;;3.33;2.77;;;12.10;95.70;;;;;;5033496;28;20455;-69
2022/03/14 05:43:40;;;;;;;4.37;2.50;;;12.00;96.00;;;;;;5033370;28;20462;-69
2022/03/14 05:46:08;;;;;;;4.80;3.30;;;11.90;95.90;;;;;;5033559;28;20469;-69
2022/03/14 05:48:36;;;;;;;3.40;3.10;;;11.80;96.20;;;;;;5033148;28;20856;-70
2022/03/14 05:51:05;;;;;;;3.80;2.77;;;11.70;96.70;;;;;;5033444;28;20442;-70
2022/03/14 05:53:32;;;;;;;3.33;3.03;;;11.60;96.90;;;;;;5033564;28;20450;-70
2022/03/14 05:55:59;;;;;;;4.47;3.20;;;11.50;97.30;;;;;;5033022;28;20470;-69
2022/03/14 05:58:26;;;;;;;3.50;2.90;;;11.50;97.40;;;;;;5033141;28;20811;-70
2022/03/14 06:00:53;;;;;;;6.33;3.37;;;11.50;97.60;;;;;;5033304;28;20496;-70
2022/03/14 06:03:21;;;;;;;3.67;3.33;;;11.40;97.80;;;;;;5033433;28;20875;-69
2022/03/14 06:05:50;;;;;;;3.50;3.03;;;11.30;98.10;;;;;;5033407;28;20467;-69
2022/03/14 06:08:17;;;;;;;4.10;3.30;;;11.30;98.50;;;;;;5033374;28;20446;-69
2022/03/14 06:10:45;;;;;;;3.37;2.73;;;11.20;98.50;;;;;;5050108;22;20500;-72
2022/03/14 06:13:12;;;;;;;3.93;3.00;;;11.20;98.60;;;;;;5052973;28;20457;-71
2022/03/14 06:15:38;;;;;;;3.10;2.80;;;11.10;98.50;;;;;;5052884;28;20473;-72
2022/03/14 06:18:06;;;;;;;3.87;3.57;;;11.10;98.60;;;;;;5053068;28;20438;-72
2022/03/14 06:20:33;;;;;;;5.50;4.00;;;11.00;98.80;;;;;;5052977;28;20489;-72
2022/03/14 06:23:01;;;;;;;6.53;3.57;;;10.90;99.00;;;;;;5053018;28;20445;-71
2022/03/14 06:25:28;;;;;;;5.47;4.50;;;10.80;99.10;;;;;;5053175;28;20466;-71
2022/03/14 06:27:54;;;;;;;10.10;3.97;;;10.80;99.40;;;;;;5052729;28;20952;-71
2022/03/14 06:30:21;;;;;;;4.37;3.97;;;10.70;99.70;;;;;;5053006;28;20468;-72
2022/03/14 06:32:49;;;;;;;5.03;4.53;;;10.70;99.70;;;;;;5052675;28;20452;-72
2022/03/14 06:35:17;;;;;;;6.10;4.60;;;10.80;99.60;;;;;;5052378;28;21047;-71
2022/03/14 06:37:45;;;;;;;5.20;4.20;;;10.80;99.70;;;;;;5052751;28;20552;-71
2022/03/14 06:40:14;;;;;;;8.53;4.50;;;10.80;99.90;;;;;;5052647;28;20493;-71
2022/03/14 06:42:41;;;;;;;6.57;4.40;;;10.80;99.90;;;;;;5052771;28;20453;-71
2022/03/14 06:45:09;;;;;;;4.90;3.90;;;10.80;99.80;;;;;;5052679;28;20519;-71
2022/03/14 06:47:38;;;;;;;6.33;4.93;;;10.80;99.80;;;;;;5052865;28;20532;-72
2022/03/14 06:50:06;;;;;;;5.50;3.73;;;10.80;99.70;;;;;;5053086;28;20819;-72
2022/03/14 06:52:32;;;;;;;6.13;4.17;;;10.80;99.60;;;;;;5052827;28;20452;-71
2022/03/14 06:54:59;;;;;;;4.90;4.10;;;10.80;99.80;;;;;;5054388;28;20469;-72
2022/03/14 06:57:28;;;;;;;6.77;3.40;;;10.80;99.80;;;;;;5056310;28;20494;-72
2022/03/14 06:59:55;;;;;;;6.70;4.07;;;10.80;99.90;;;;;;5056209;28;20517;-72
2022/03/14 07:02:25;;;;;;;6.27;3.73;;;10.90;99.70;;;;;;5056106;28;20485;-72
2022/03/14 07:04:52;;;;;;;8.27;3.50;;;10.90;99.60;;;;;;5056101;28;20469;-71
2022/03/14 07:07:19;;;;;;;14.57;4.47;;;10.80;99.70;;;;;;5056029;28;20449;-71
2022/03/14 07:09:46;;;;;;;5.20;3.43;;;10.90;99.70;;;;;;5055749;28;20452;-72
2022/03/14 07:12:13;;;;;;;9.90;3.90;;;10.80;99.80;;;;;;5055951;28;20829;-71
2022/03/14 07:14:41;;;;;;;5.80;3.40;;;10.90;99.80;;;;;;5055798;28;20470;-71
2022/03/14 07:17:08;;;;;;;6.93;3.73;;;10.90;99.50;;;;;;5055726;28;20460;-72
2022/03/14 07:19:35;;;;;;;4.87;3.30;;;10.90;99.50;;;;;;5055640;28;20454;-72
2022/03/14 07:22:03;;;;;;;7.57;3.90;;;10.90;99.60;;;;;;5055767;28;20465;-71
2022/03/14 07:24:30;;;;;;;6.37;3.67;;;10.90;99.60;;;;;;5055561;28;20910;-72
2022/03/14 07:26:56;;;;;;;10.60;3.77;;;10.90;99.30;;;;;;5055804;28;20483;-72
2022/03/14 07:29:23;;;;;;;11.33;4.20;;;11.00;99.60;;;;;;5055365;28;20442;-72
2022/03/14 07:31:51;;;;;;;7.03;4.03;;;11.00;99.50;;;;;;5055606;28;20445;-72
2022/03/14 07:34:18;;;;;;;5.10;3.23;;;11.00;99.40;;;;;;5055503;28;20484;-72
2022/03/14 07:36:46;;;;;;;5.80;3.33;;;11.10;99.40;;;;;;5055702;28;20453;-72
2022/03/14 07:39:12;;;;;;;5.33;3.40;;;11.10;99.10;;;;;;5055573;28;20464;-72
2022/03/14 07:41:39;;;;;;;5.77;3.20;;;11.10;98.90;;;;;;5055249;28;20477;-71
2022/03/14 07:44:06;;;;;;;4.87;3.40;;;11.20;99.00;;;;;;5055611;28;20460;-71
2022/03/14 07:46:34;;;;;;;7.63;3.57;;;11.20;98.80;;;;;;5055216;28;20801;-71
2022/03/14 07:49:03;;;;;;;7.50;3.53;;;11.20;98.80;;;;;;5055506;28;20450;-71
2022/03/14 07:51:30;;;;;;;7.53;4.20;;;11.10;99.00;;;;;;5055529;28;20450;-72
2022/03/14 07:53:56;;;;;;;6.77;3.90;;;11.10;99.30;;;;;;5054887;28;20456;-71
2022/03/14 07:56:24;;;;;;;6.90;3.80;;;11.10;99.10;;;;;;5055173;28;20453;-71
2022/03/14 07:58:51;;;;;;;6.63;3.17;;;11.10;99.20;;;;;;5055023;28;20442;-71
2022/03/14 08:01:18;;;;;;;7.00;4.20;;;11.10;99.10;;;;;;5054648;28;20999;-71
2022/03/14 08:03:46;;;;;;;5.97;3.60;;;11.20;99.20;;;;;;5055291;28;20456;-71
2022/03/14 08:06:17;;;;;;;7.80;3.43;;;11.20;98.80;;;;;;5055020;28;20548;-71
2022/03/14 08:08:44;;;;;;;7.57;3.70;;;11.30;98.80;;;;;;5054674;28;20967;-72
2022/03/14 08:11:13;;;;;;;7.17;3.53;;;11.40;98.70;;;;;;5054608;28;20461;-72
2022/03/14 08:13:39;;;;;;;4.53;3.07;;;11.40;98.50;;;;;;5054990;28;20512;-71
2022/03/14 08:16:06;;;;;;;5.67;3.33;;;11.40;98.60;;;;;;5054750;28;20466;-72
2022/03/14 08:18:33;;;;;;;5.40;3.10;;;11.40;98.10;;;;;;5054588;28;20445;-71
2022/03/14 08:21:00;;;;;;;4.63;2.83;;;11.40;98.70;;;;;;5054496;28;21003;-72
2022/03/14 08:23:28;;;;;;;9.20;3.13;;;11.50;98.30;;;;;;5055353;28;20455;-72
2022/03/14 08:25:55;;;;;;;6.93;4.00;;;11.50;98.40;;;;;;5049607;28;20482;-71
2022/03/14 08:28:22;;;;;;;7.30;3.43;;;11.60;98.30;;;;;;5034586;28;20457;-72
2022/03/14 08:30:49;;;;;;;4.53;3.80;;;11.70;97.60;;;;;;5034534;28;20435;-71
2022/03/14 08:33:17;;;;;;;7.13;3.03;;;11.70;97.30;;;;;;5034512;28;20458;-71
2022/03/14 08:35:47;;;;;;;4.67;3.57;;;11.70;97.10;;;;;;5034473;28;20585;-71
2022/03/14 08:38:14;;;;;;;7.27;3.30;;;11.70;97.10;;;;;;5034422;28;20450;-72
2022/03/14 08:40:42;;;;;;;4.47;3.23;;;11.60;97.60;;;;;;5034234;28;20574;-72
2022/03/14 08:43:09;;;;;;;8.70;3.90;;;11.60;98.30;;;;;;5034104;28;20917;-72
2022/03/14 08:45:36;;;;;;;11.37;3.47;;;11.60;97.80;;;;;;5034470;28;20497;-71
2022/03/14 08:48:05;;;;;;;9.40;3.70;;;11.60;97.70;;;;;;5034080;28;20466;-71
2022/03/14 08:50:33;;;;;;;8.20;3.90;;;11.70;97.60;;;;;;5033902;28;20486;-71
2022/03/14 08:53:00;;;;;;;6.23;3.60;;;11.70;97.70;;;;;;5034080;28;20528;-71
2022/03/14 08:55:27;;;;;;;11.43;3.57;;;11.80;97.70;;;;;;5033819;28;21024;-72
2022/03/14 08:57:55;;;;;;;4.10;2.90;;;11.90;97.90;;;;;;5034022;28;20497;-72
2022/03/14 09:00:24;;;;;;;5.70;3.33;;;11.90;98.00;;;;;;5034485;28;20467;-72
2022/03/14 09:02:51;;;;;;;9.17;3.80;;;12.10;97.30;;;;;;5033968;28;20469;-72
2022/03/14 09:05:18;;;;;;;9.13;4.00;;;12.10;96.40;;;;;;5033827;28;20470;-72
2022/03/14 09:07:45;;;;;;;5.87;4.07;;;12.10;96.60;;;;;;5033585;28;20917;-72
2022/03/14 09:10:14;;;;;;;11.20;4.90;;;12.20;96.00;;;;;;5033493;28;20969;-73
2022/03/14 09:12:42;;;;;;;7.03;3.77;;;12.20;96.60;;;;;;5032925;28;20455;-72
2022/03/14 09:15:12;;;;;;;4.50;4.10;;;12.10;95.50;;;;;;5033927;28;20478;-72
2022/03/14 09:17:47;;;;;;;14.23;4.03;;;12.00;95.90;;;;;;5033015;28;20794;-72
2022/03/14 09:20:15;;;;;;;4.97;3.90;;;12.00;96.60;;;;;;5033649;28;20435;-72
2022/03/14 09:22:44;;;;;;;5.00;4.10;;;12.00;95.90;;;;;;5033808;28;20450;-72
2022/03/14 09:25:11;;;;;;;7.87;4.90;;;12.10;95.80;;;;;;5033246;28;21095;-72
2022/03/14 09:27:38;;;;;;;5.70;4.80;;;12.10;96.50;;;;;;5033659;28;20493;-72
2022/03/14 09:30:06;;;;;;;7.40;5.50;;;12.20;96.60;;;;;;5033588;28;20458;-72
2022/03/14 09:32:34;;;;;;;6.20;5.60;;;12.30;96.10;;;;;;5033507;28;20455;-72
2022/03/14 09:35:03;;;;;;;5.07;4.57;;;12.30;94.60;;;;;;5033641;28;20509;-72
2022/03/14 09:37:30;;;;;;;9.07;5.17;;;12.30;94.30;;;;;;5033508;28;20459;-72
2022/03/14 09:39:57;;;;;;;7.00;5.30;;;12.40;94.70;;;;;;5033558;28;20536;-72
2022/03/14 09:42:25;;;;;;;6.93;4.80;;;12.40;95.10;;;;;;5033394;28;20504;-72
2022/03/14 09:44:53;;;;;;;7.33;4.40;;;12.40;93.70;;;;;;5033585;28;20475;-72
2022/03/14 09:47:23;;;;;;;5.33;4.83;;;12.30;93.80;;;;;;5033559;28;20541;-72
2022/03/14 09:49:55;;;;;;;5.77;4.60;;;12.30;93.70;;;;;;5033806;28;20498;-72
2022/03/14 09:52:22;;;;;;;5.60;4.40;;;12.40;93.80;;;;;;5033060;28;20435;-72
2022/03/14 09:54:49;;;;;;;8.90;5.10;;;12.40;94.10;;;;;;5034049;28;20548;-72
2022/03/14 09:57:16;;;;;;;8.40;5.50;;;12.60;94.20;;;;;;5033862;28;20470;-72
2022/03/14 09:59:44;;;;;;;7.17;4.73;;;12.70;94.10;;;;;;5033614;28;20443;-73
2022/03/14 10:02:12;;;;;;;8.80;4.90;;;13.00;93.00;;;;;;5033362;28;20494;-73
2022/03/14 10:04:39;;;;;;;5.67;4.40;;;13.20;92.20;;;;;;5033448;28;20478;-73
2022/03/14 10:07:08;;;;;;;5.43;4.60;;;13.50;91.90;;;;;;5033364;28;20433;-72
2022/03/14 10:09:35;;;;;;;7.03;4.90;;;13.80;91.20;;;;;;5033266;28;20812;-73
2022/03/14 10:12:02;;;;;;;8.20;4.70;;;14.00;89.90;;;;;;5033339;28;20444;-73
2022/03/14 10:14:29;;;;;;;6.33;4.73;;;14.10;89.20;;;;;;5033075;28;20985;-74
2022/03/14 10:16:56;;;;;;;5.93;4.53;;;14.30;88.20;;;;;;5033436;28;20446;-73
2022/03/14 10:19:30;;;;;;;4.97;4.13;;;14.60;88.50;;;;;;5032974;28;20450;-73
2022/03/14 10:21:57;;;;;;;7.43;4.57;;;14.70;84.00;;;;;;5033387;28;20467;-73
2022/03/14 10:24:26;;;;;;;8.33;4.80;;;14.70;83.40;;;;;;5033272;28;20469;-73
2022/03/14 10:26:55;;;;;;;5.40;4.33;;;14.60;83.00;;;;;;5033341;28;20458;-73
2022/03/14 10:29:25;;;;;;;7.37;5.43;;;14.30;83.10;;;;;;5034151;28;20508;-72
2022/03/14 10:31:54;;;;;;;7.07;5.23;;;13.90;84.80;;;;;;5037131;28;20454;-72
2022/03/14 10:34:21;;;;;;;6.73;5.50;;;13.80;84.80;;;;;;5037290;28;20524;-72
2022/03/14 10:36:51;;;;;;;6.53;5.43;;;13.60;85.70;;;;;;5036636;28;20457;-73
2022/03/14 10:39:21;;;;;;;7.83;4.47;;;13.40;85.70;;;;;;5037178;28;20454;-72
2022/03/14 10:42:03;;;;;;;7.83;5.10;;;13.40;86.90;;;;;;5037381;28;20481;-73
2022/03/14 10:44:30;;;;;;;7.40;5.40;;;13.40;88.50;;;;;;5038580;28;20505;-73
2022/03/14 10:46:59;;;;;;;8.37;5.87;;;13.30;89.30;;;;;;5038468;28;20454;-73
2022/03/14 10:49:28;;;;;;;6.43;5.50;;;13.20;88.10;;;;;;5038147;28;20457;-72
2022/03/14 10:51:56;;;;;;;6.27;5.60;;;13.10;89.00;;;;;;5038702;28;20439;-73
2022/03/14 10:54:23;;;;;;;7.70;5.20;;;13.10;89.70;;;;;;5040119;28;20481;-72
2022/03/14 10:57:06;;;;;;;11.13;5.47;;;13.10;89.30;;;;;;5038910;28;20457;-72
2022/03/14 10:59:34;;;;;;;10.90;5.30;;;13.10;89.30;;;;;;5038352;28;20434;-72
2022/03/14 11:02:02;;;;;;;5.70;4.53;;;13.10;88.90;;;;;;5040419;28;20486;-72
2022/03/14 11:04:29;;;;;;;6.73;4.80;;;13.00;87.90;;;;;;5043394;28;20481;-72
2022/03/14 11:06:59;;;;;;;6.63;4.70;;;13.00;88.00;;;;;;5041582;28;20450;-73
2022/03/14 11:09:41;;;;;;;6.30;4.47;;;13.10;87.70;;;;;;5041994;28;20561;-72
2022/03/14 11:12:11;;;;;;;4.07;3.67;;;13.10;87.50;;;;;;5041779;28;20427;-72
2022/03/14 11:14:38;;;;;;;6.37;4.20;;;13.10;86.00;;;;;;5041275;28;20557;-72
2022/03/14 11:17:17;;;;;;;5.53;3.63;;;13.20;87.00;;;;;;5036766;28;20446;-72
2022/03/14 11:19:44;;;;;;;5.03;3.73;;;13.30;86.80;;;;;;5036542;28;20446;-72
2022/03/14 11:22:13;;;;;;;6.93;4.70;;;13.30;84.90;;;;;;5035224;28;20474;-72
2022/03/14 11:24:42;;;;;;;6.93;4.00;;;13.30;85.40;;;;;;5036311;28;20497;-72
2022/03/14 11:27:17;;;;;;;4.93;3.60;;;13.40;86.40;;;;;;5036090;28;20466;-72
2022/03/14 11:29:46;;;;;;;7.23;3.97;;;13.60;86.70;;;;;;5035660;28;20815;-71
2022/03/14 11:32:13;;;;;;;5.47;4.13;;;13.70;86.00;;;;;;5035916;28;20450;-72
2022/03/14 11:34:41;;;;;;;7.00;3.47;;;13.70;84.30;;;;;;5035750;28;20478;-72
2022/03/14 11:37:08;;;;;;;5.97;3.07;;;13.50;84.60;;;;;;5035758;28;20465;-72
2022/03/14 11:39:36;;;;;;;6.97;3.20;;;13.40;83.70;;;;;;5035452;28;20457;-72
2022/03/14 11:42:03;;;;;;;7.30;3.03;;;13.40;83.80;;;;;;5035977;28;20471;-72
2022/03/14 11:44:32;;;;;;;3.60;3.30;;;13.40;84.30;;;;;;5035838;28;20487;-72
2022/03/14 11:46:59;;;;;;;5.10;3.20;;;13.40;83.40;;;;;;5035184;28;20474;-72
2022/03/14 11:49:29;;;;;;;4.13;3.33;;;13.50;83.40;;;;;;5035235;28;20832;-73
2022/03/14 11:52:10;;;;;;;13.70;3.73;;;13.60;83.40;;;;;;5035382;28;20505;-72
2022/03/14 11:54:38;;;;;;;3.60;3.00;;;13.80;82.50;;;;;;5034844;28;20470;-72
2022/03/14 11:57:05;;;;;;;5.10;3.27;;;13.90;83.90;;;;;;5035311;28;20505;-72
2022/03/14 11:59:36;;;;;;;4.70;3.20;;;14.00;82.40;;;;;;5035219;28;20542;-72
2022/03/14 12:02:05;;;;;;;3.80;3.37;;;14.10;81.10;;;;;;5034958;28;21002;-72
2022/03/14 12:04:34;;;;;;;4.63;3.40;;;14.00;79.40;;;;;;5034779;28;21003;-72
2022/03/14 12:07:06;;;;;;;3.90;3.20;;;14.00;81.20;;;;;;5035327;28;20454;-72
2022/03/14 12:09:52;;;;;;;4.70;3.00;;;14.00;80.10;;;;;;5034995;28;21035;-72
2022/03/14 12:12:29;;;;;;;6.83;3.70;;;14.00;81.70;;;;;;5035574;28;20489;-72
2022/03/14 12:14:59;;;;;;;6.23;3.27;;;13.90;80.60;;;;;;5034589;28;20992;-72
2022/03/14 12:17:28;;;;;;;2.90;2.70;;;13.70;80.50;;;;;;5034584;28;20999;-72
2022/03/14 12:19:57;;;;;;;4.10;2.90;;;13.70;79.70;;;;;;5034897;28;20817;-72
2022/03/14 12:22:45;;;;;;;3.30;3.00;;;13.80;79.70;;;;;;5034623;28;20489;-73
2022/03/14 12:25:15;;;;;;;3.67;3.00;;;13.90;78.30;;;;;;5034886;28;20482;-72
2022/03/14 12:27:43;;;;;;;3.33;2.97;;;14.00;78.70;;;;;;5034723;28;20439;-73
2022/03/14 12:30:33;;;;;;;5.97;3.17;;;14.10;76.40;;;;;;5034754;28;20459;-73
2022/03/14 12:33:06;;;;;;;7.77;3.50;;;14.20;76.90;;;;;;5028816;28;20463;-72
2022/03/14 12:35:37;;;;;;;4.10;2.83;;;14.30;76.50;;;;;;5034712;28;20554;-72
2022/03/14 12:38:13;;;;;;;4.93;3.13;;;14.40;78.10;;;;;;5034174;28;20856;-72
2022/03/14 12:40:45;;;;;;;6.80;2.60;;;14.60;73.80;;;;;;5032990;28;21040;-72
2022/03/14 12:43:31;;;;;;;5.50;3.60;;;14.80;74.60;;;;;;5034566;28;20583;-73
2022/03/14 12:46:00;;;;;;;4.43;3.03;;;15.00;72.80;;;;;;5033247;28;20478;-72
2022/03/14 12:48:28;;;;;;;5.07;3.20;;;15.10;71.30;;;;;;5034405;28;20450;-72
2022/03/14 12:50:58;;;;;;;3.60;2.63;;;15.20;71.60;;;;;;5034514;28;20446;-72